Portada
METAR-TAF:

METAR-TAF

Aeroports :

Aeroport Internacional de Tòquio

Tòquio Haneda, Japó

latitud: 35-33N, longitud: 139-47E, altitud: 5 m

Observació

L'informe es va fer fa 23 minuts, a les 09:00 UTC
Vent 14 kt del Sud/Sud-Oest
Temperatura 27°C
Humitat 89%
Pressió 1010 hPa
Visibilitat 10 km o més
Escasses núvols a una alçada de 1200 ft
Cel ennuvolat a una alçada de 20000 ft

METAR: RJTT 100900Z 20014KT 9999 FEW012 BKN200 27/25 Q1010 NOSIG RMK 1CU012 7AC200 A2984

Hora: 18:23 (09:23 UTC)

Pronòstic

L'informe es va fer fa 4 hores i 18 minuts, a les 05:05 UTC
Pronòstic vàlid del 10 a les 06 UTC al 11 a les 12 UTC
Vent 18 kt del Sud
Visibilitat 10 km o més
Escasses núvols a una alçada de 2000 ft
Evolucionant progressivament
l' 10 a les 21 UTC al 11 a les 00 UTC
Vent 22 kt del Sud/Sud-Oest amb ràfegues de 32 kt

TAF: RJTT 100505Z 1006/1112 19018KT 9999 FEW020 BECMG 1021/1100 20022G32KT

Observacions i pronòstics meteorològics de més de 4000 aeroports (METAR i TAF).

Les estacions disponibles són els punts grocs i vermells al mapa.

Posi el ratolí al punt desitjat per veure el nom de l'estació.

Feu clic per veure les observacions i els pronòstics meteorològics.

Per canviar el mapa: feu clic els botons verds amb una creu de color negre per apropar; al botó verd amb un guió per allunyar la imatge; o en les fletxes verdes per a mapes adjacents.


METAR-TAF: